Aviation Digital Data Service (ADDS)

Output produced by METARs form (0059 UTC 22 September 2017)
found at http://www.aviationweather.gov/adds/metars/
 
VVDN 220030Z VRB01KT 9999 FEW013 SCT060 29/26 Q1009 NOSIG
TAF VVDN 212300Z 2200/2224 VRB02KT 9999 FEW013 SCT050 
     BECMG 2202/2203 04010KT 
     TEMPO 2209/2216 4000 SHRA SCT013 FEW017CB BKN050
       
VVNB 220030Z 05004KT 5000 BR NSC 28/26 Q1010 BECMG FM0130 7000 NSW
TAF VVNB 212300Z 2200/2224 06005KT 6000 FEW020 
     BECMG 2221/2222 4000 BR
       
VVTS 220030Z VRB02KT 5000 BR FEW015 SCT040 OVC100 26/26 Q1008 NOSIG
TAF VVTS 212300Z 2200/2306 VRB05KT 9999 SCT015 BKN040 
     TEMPO 2200/2202 4000 RA BR BKN013 FEW015CB BKN040 
     BECMG 2202/2203 25008KT 
     TEMPO 2205/2210 09015G30KT 2000 +TSRA BKN013 SCT015CB 
     TEMPO 2210/2212 5000 TSRA BKN015 FEW017CB